sensor_id;sensor_type;location;lat;lon;timestamp;pressure;altitude;pressure_sealevel;temperature;humidity
69187;BME280;56301;56.864;60.554;2023-04-20T00:01:02;99505.50;;;25.11;29.00
69187;BME280;56301;56.864;60.554;2023-04-20T00:03:25;99504.47;;;25.12;28.95
69187;BME280;56301;56.864;60.554;2023-04-20T00:05:47;99499.06;;;25.12;28.27
69187;BME280;56301;56.864;60.554;2023-04-20T00:08:10;99493.97;;;25.09;27.75
69187;BME280;56301;56.864;60.554;2023-04-20T00:10:32;99493.09;;;25.09;28.52
69187;BME280;56301;56.864;60.554;2023-04-20T00:12:55;99495.81;;;25.09;28.81
69187;BME280;56301;56.864;60.554;2023-04-20T00:15:18;99494.66;;;25.11;28.90
69187;BME280;56301;56.864;60.554;2023-04-20T00:17:40;99492.81;;;25.12;29.08
69187;BME280;56301;56.864;60.554;2023-04-20T00:20:03;99496.34;;;25.12;29.73
69187;BME280;56301;56.864;60.554;2023-04-20T00:22:25;99487.38;;;25.12;29.30
69187;BME280;56301;56.864;60.554;2023-04-20T00:24:48;99493.66;;;25.12;29.68
69187;BME280;56301;56.864;60.554;2023-04-20T00:27:10;99487.38;;;25.12;28.28
69187;BME280;56301;56.864;60.554;2023-04-20T00:29:33;99482.81;;;25.12;29.01
69187;BME280;56301;56.864;60.554;2023-04-20T00:31:55;99486.41;;;25.13;29.21
69187;BME280;56301;56.864;60.554;2023-04-20T00:34:18;99480.81;;;25.14;29.59
69187;BME280;56301;56.864;60.554;2023-04-20T00:36:40;99478.09;;;25.14;29.10
69187;BME280;56301;56.864;60.554;2023-04-20T00:39:03;99482.47;;;25.15;28.58
69187;BME280;56301;56.864;60.554;2023-04-20T00:41:25;99481.50;;;25.16;29.43
69187;BME280;56301;56.864;60.554;2023-04-20T00:43:48;99467.59;;;25.19;28.59
69187;BME280;56301;56.864;60.554;2023-04-20T00:46:11;99463.38;;;25.17;29.31
69187;BME280;56301;56.864;60.554;2023-04-20T00:48:33;99463.69;;;25.22;29.15
69187;BME280;56301;56.864;60.554;2023-04-20T00:50:56;99456.41;;;25.23;29.90
69187;BME280;56301;56.864;60.554;2023-04-20T00:53:18;99467.25;;;25.23;29.36
69187;BME280;56301;56.864;60.554;2023-04-20T00:55:41;99461.84;;;25.23;29.36
69187;BME280;56301;56.864;60.554;2023-04-20T00:58:07;99463.50;;;25.24;29.42
69187;BME280;56301;56.864;60.554;2023-04-20T01:00:29;99459.81;;;25.25;29.42
69187;BME280;56301;56.864;60.554;2023-04-20T01:02:52;99460.66;;;25.25;29.52
69187;BME280;56301;56.864;60.554;2023-04-20T01:05:14;99458.78;;;25.26;28.94
69187;BME280;56301;56.864;60.554;2023-04-20T01:07:37;99456.94;;;25.26;29.96
69187;BME280;56301;56.864;60.554;2023-04-20T01:09:59;99449.47;;;25.28;28.76
69187;BME280;56301;56.864;60.554;2023-04-20T01:12:22;99446.59;;;25.30;29.75
69187;BME280;56301;56.864;60.554;2023-04-20T01:14:44;99448.28;;;25.31;29.21
69187;BME280;56301;56.864;60.554;2023-04-20T01:17:07;99449.16;;;25.31;29.81
69187;BME280;56301;56.864;60.554;2023-04-20T01:19:30;99448.97;;;25.33;29.26
69187;BME280;56301;56.864;60.554;2023-04-20T01:21:53;99446.25;;;25.33;29.38
69187;BME280;56301;56.864;60.554;2023-04-20T01:24:16;99440.00;;;25.32;29.25
69187;BME280;56301;56.864;60.554;2023-04-20T01:26:38;99435.41;;;25.33;29.53
69187;BME280;56301;56.864;60.554;2023-04-20T01:29:03;99428.97;;;25.34;29.75
69187;BME280;56301;56.864;60.554;2023-04-20T01:31:25;99424.59;;;25.33;29.87
69187;BME280;56301;56.864;60.554;2023-04-20T01:33:47;99421.03;;;25.32;29.68
69187;BME280;56301;56.864;60.554;2023-04-20T01:36:10;99422.56;;;25.35;29.49
69187;BME280;56301;56.864;60.554;2023-04-20T01:38:33;99420.50;;;25.37;29.13
69187;BME280;56301;56.864;60.554;2023-04-20T01:40:56;99419.34;;;25.39;28.51
69187;BME280;56301;56.864;60.554;2023-04-20T01:43:19;99409.84;;;25.43;28.25
69187;BME280;56301;56.864;60.554;2023-04-20T01:45:42;99414.91;;;25.47;28.23
69187;BME280;56301;56.864;60.554;2023-04-20T01:48:04;99404.22;;;25.53;29.02
69187;BME280;56301;56.864;60.554;2023-04-20T01:50:28;99410.66;;;25.60;28.92
69187;BME280;56301;56.864;60.554;2023-04-20T01:52:50;99410.44;;;25.70;29.76
69187;BME280;56301;56.864;60.554;2023-04-20T01:55:13;99410.09;;;25.73;29.62
69187;BME280;56301;56.864;60.554;2023-04-20T01:57:35;99406.34;;;25.74;29.96
69187;BME280;56301;56.864;60.554;2023-04-20T01:59:58;99407.22;;;25.75;30.28
69187;BME280;56301;56.864;60.554;2023-04-20T02:02:20;99403.34;;;25.69;30.22
69187;BME280;56301;56.864;60.554;2023-04-20T02:04:43;99400.81;;;25.67;29.68
69187;BME280;56301;56.864;60.554;2023-04-20T02:07:05;99393.66;;;25.66;29.78
69187;BME280;56301;56.864;60.554;2023-04-20T02:09:28;99394.69;;;25.65;29.40
69187;BME280;56301;56.864;60.554;2023-04-20T02:11:50;99386.75;;;25.64;29.32
69187;BME280;56301;56.864;60.554;2023-04-20T02:14:12;99383.19;;;25.63;29.28
69187;BME280;56301;56.864;60.554;2023-04-20T02:16:35;99374.41;;;25.61;28.79
69187;BME280;56301;56.864;60.554;2023-04-20T02:18:57;99378.13;;;25.60;28.68
69187;BME280;56301;56.864;60.554;2023-04-20T02:21:20;99375.44;;;25.60;29.33
69187;BME280;56301;56.864;60.554;2023-04-20T02:23:42;99373.72;;;25.59;28.52
69187;BME280;56301;56.864;60.554;2023-04-20T02:26:05;99370.16;;;25.59;28.65
69187;BME280;56301;56.864;60.554;2023-04-20T02:28:27;99371.53;;;25.55;29.00
69187;BME280;56301;56.864;60.554;2023-04-20T02:30:50;99373.41;;;25.54;29.82
69187;BME280;56301;56.864;60.554;2023-04-20T02:33:12;99369.16;;;25.52;28.61
69187;BME280;56301;56.864;60.554;2023-04-20T02:35:35;99365.81;;;25.50;29.31
69187;BME280;56301;56.864;60.554;2023-04-20T02:37:58;99363.09;;;25.50;29.19
69187;BME280;56301;56.864;60.554;2023-04-20T02:40:20;99361.38;;;25.49;28.86
69187;BME280;56301;56.864;60.554;2023-04-20T02:42:43;99356.16;;;25.47;28.30
69187;BME280;56301;56.864;60.554;2023-04-20T02:45:07;99352.09;;;25.43;29.97
69187;BME280;56301;56.864;60.554;2023-04-20T02:47:30;99351.06;;;25.44;28.55
69187;BME280;56301;56.864;60.554;2023-04-20T02:49:53;99342.78;;;25.37;28.88
69187;BME280;56301;56.864;60.554;2023-04-20T02:52:15;99350.91;;;25.37;29.45
69187;BME280;56301;56.864;60.554;2023-04-20T02:54:39;99346.53;;;25.36;29.01
69187;BME280;56301;56.864;60.554;2023-04-20T02:57:02;99347.72;;;25.34;28.97
69187;BME280;56301;56.864;60.554;2023-04-20T02:59:24;99350.13;;;25.29;28.92
69187;BME280;56301;56.864;60.554;2023-04-20T03:01:55;99350.94;;;25.29;29.21
69187;BME280;56301;56.864;60.554;2023-04-20T03:04:20;99343.00;;;25.28;30.06
69187;BME280;56301;56.864;60.554;2023-04-20T03:06:50;99335.22;;;25.25;29.41
69187;BME280;56301;56.864;60.554;2023-04-20T03:09:17;99336.22;;;25.24;29.31
69187;BME280;56301;56.864;60.554;2023-04-20T03:11:58;99342.66;;;25.23;28.97
69187;BME280;56301;56.864;60.554;2023-04-20T03:14:43;99334.88;;;25.19;29.48
69187;BME280;56301;56.864;60.554;2023-04-20T03:17:05;99334.06;;;25.11;29.02
69187;BME280;56301;56.864;60.554;2023-04-20T03:19:28;99321.03;;;25.06;27.83
69187;BME280;56301;56.864;60.554;2023-04-20T03:21:50;99328.97;;;25.00;28.11
69187;BME280;56301;56.864;60.554;2023-04-20T03:24:13;99332.88;;;24.97;28.16
69187;BME280;56301;56.864;60.554;2023-04-20T03:26:35;99342.00;;;24.96;27.81
69187;BME280;56301;56.864;60.554;2023-04-20T03:29:13;99332.38;;;24.93;27.80
69187;BME280;56301;56.864;60.554;2023-04-20T03:31:35;99331.53;;;24.93;27.49
69187;BME280;56301;56.864;60.554;2023-04-20T03:33:58;99324.44;;;24.92;27.80
69187;BME280;56301;56.864;60.554;2023-04-20T03:36:20;99322.72;;;24.91;28.08
69187;BME280;56301;56.864;60.554;2023-04-20T03:38:43;99330.00;;;24.90;28.13
69187;BME280;56301;56.864;60.554;2023-04-20T03:41:07;99321.88;;;24.90;28.13
69187;BME280;56301;56.864;60.554;2023-04-20T03:43:29;99317.31;;;24.91;28.20
69187;BME280;56301;56.864;60.554;2023-04-20T03:45:51;99320.00;;;24.91;28.14
69187;BME280;56301;56.864;60.554;2023-04-20T03:48:14;99317.31;;;24.91;28.34
69187;BME280;56301;56.864;60.554;2023-04-20T03:50:37;99317.31;;;24.91;28.19
69187;BME280;56301;56.864;60.554;2023-04-20T03:53:00;99320.88;;;24.91;28.47
69187;BME280;56301;56.864;60.554;2023-04-20T03:55:23;99316.47;;;24.90;27.69
69187;BME280;56301;56.864;60.554;2023-04-20T03:57:52;99317.66;;;24.88;28.05
69187;BME280;56301;56.864;60.554;2023-04-20T04:00:15;99305.31;;;24.85;27.36
69187;BME280;56301;56.864;60.554;2023-04-20T04:02:40;99298.03;;;24.86;27.94
69187;BME280;56301;56.864;60.554;2023-04-20T04:05:03;99305.81;;;24.89;27.93
69187;BME280;56301;56.864;60.554;2023-04-20T04:07:25;99310.22;;;24.90;28.24
69187;BME280;56301;56.864;60.554;2023-04-20T04:09:48;99302.78;;;24.92;28.27
69187;BME280;56301;56.864;60.554;2023-04-20T04:12:11;99292.94;;;24.91;27.71
69187;BME280;56301;56.864;60.554;2023-04-20T04:14:34;99297.34;;;24.92;27.74
69187;BME280;56301;56.864;60.554;2023-04-20T04:16:57;99291.09;;;24.91;27.83
69187;BME280;56301;56.864;60.554;2023-04-20T04:19:20;99279.06;;;24.94;27.87
69187;BME280;56301;56.864;60.554;2023-04-20T04:21:43;99277.19;;;24.94;28.32
69187;BME280;56301;56.864;60.554;2023-04-20T04:24:06;99277.88;;;24.96;28.06
69187;BME280;56301;56.864;60.554;2023-04-20T04:26:45;99282.13;;;24.99;27.64
69187;BME280;56301;56.864;60.554;2023-04-20T04:29:08;99283.47;;;24.95;27.93
69187;BME280;56301;56.864;60.554;2023-04-20T04:31:31;99278.22;;;24.93;28.29
69187;BME280;56301;56.864;60.554;2023-04-20T04:33:59;99277.72;;;24.90;28.78
69187;BME280;56301;56.864;60.554;2023-04-20T04:36:29;99272.66;;;24.87;28.23
69187;BME280;56301;56.864;60.554;2023-04-20T04:38:53;99262.84;;;24.86;27.95
69187;BME280;56301;56.864;60.554;2023-04-20T04:41:17;99262.53;;;24.81;27.80
69187;BME280;56301;56.864;60.554;2023-04-20T04:43:42;99264.56;;;24.79;27.37
69187;BME280;56301;56.864;60.554;2023-04-20T04:46:14;99260.16;;;24.78;27.79
69187;BME280;56301;56.864;60.554;2023-04-20T04:48:36;99259.47;;;24.76;28.01
69187;BME280;56301;56.864;60.554;2023-04-20T04:51:01;99254.06;;;24.76;28.21
69187;BME280;56301;56.864;60.554;2023-04-20T04:53:24;99257.63;;;24.76;27.97
69187;BME280;56301;56.864;60.554;2023-04-20T04:55:47;99252.19;;;24.76;28.41
69187;BME280;56301;56.864;60.554;2023-04-20T04:58:09;99246.97;;;24.74;28.40
69187;BME280;56301;56.864;60.554;2023-04-20T05:00:32;99248.66;;;24.76;27.99
69187;BME280;56301;56.864;60.554;2023-04-20T05:02:54;99241.56;;;24.74;28.19
69187;BME280;56301;56.864;60.554;2023-04-20T05:05:18;99244.28;;;24.74;28.23
69187;BME280;56301;56.864;60.554;2023-04-20T05:07:40;99244.28;;;24.74;28.22
69187;BME280;56301;56.864;60.554;2023-04-20T05:10:03;99232.75;;;24.72;27.70
69187;BME280;56301;56.864;60.554;2023-04-20T05:12:25;99234.81;;;24.70;28.12
69187;BME280;56301;56.864;60.554;2023-04-20T05:14:48;99236.50;;;24.71;28.23
69187;BME280;56301;56.864;60.554;2023-04-20T05:17:10;99228.56;;;24.70;27.66
69187;BME280;56301;56.864;60.554;2023-04-20T05:19:33;99228.38;;;24.71;27.69
69187;BME280;56301;56.864;60.554;2023-04-20T05:21:56;99216.91;;;24.69;27.90
69187;BME280;56301;56.864;60.554;2023-04-20T05:24:18;99220.44;;;24.70;27.93
69187;BME280;56301;56.864;60.554;2023-04-20T05:26:40;99210.47;;;24.70;27.94
69187;BME280;56301;56.864;60.554;2023-04-20T05:29:03;99218.56;;;24.70;28.63
69187;BME280;56301;56.864;60.554;2023-04-20T05:31:26;99223.16;;;24.70;27.75
69187;BME280;56301;56.864;60.554;2023-04-20T05:33:48;99214.34;;;24.68;28.12
69187;BME280;56301;56.864;60.554;2023-04-20T05:36:11;99210.28;;;24.64;28.16
69187;BME280;56301;56.864;60.554;2023-04-20T05:38:33;99203.03;;;24.64;28.10
69187;BME280;56301;56.864;60.554;2023-04-20T05:40:56;99199.47;;;24.64;27.86
69187;BME280;56301;56.864;60.554;2023-04-20T05:43:18;99203.19;;;24.63;28.30
69187;BME280;56301;56.864;60.554;2023-04-20T05:45:40;99198.97;;;24.60;27.81
69187;BME280;56301;56.864;60.554;2023-04-20T05:48:03;99198.97;;;24.60;28.10
69187;BME280;56301;56.864;60.554;2023-04-20T05:50:25;99201.00;;;24.58;27.59
69187;BME280;56301;56.864;60.554;2023-04-20T05:52:48;99198.28;;;24.58;27.82
69187;BME280;56301;56.864;60.554;2023-04-20T05:55:10;99203.88;;;24.57;27.35
69187;BME280;56301;56.864;60.554;2023-04-20T05:57:33;99195.09;;;24.55;27.65
69187;BME280;56301;56.864;60.554;2023-04-20T05:59:56;99191.72;;;24.53;27.18
69187;BME280;56301;56.864;60.554;2023-04-20T06:02:18;99192.75;;;24.52;27.56
69187;BME280;56301;56.864;60.554;2023-04-20T06:04:41;99194.63;;;24.51;27.74
69187;BME280;56301;56.864;60.554;2023-04-20T06:07:03;99196.44;;;24.50;27.49
69187;BME280;56301;56.864;60.554;2023-04-20T06:09:26;99185.81;;;24.49;27.81
69187;BME280;56301;56.864;60.554;2023-04-20T06:11:49;99182.41;;;24.47;27.26
69187;BME280;56301;56.864;60.554;2023-04-20T06:14:11;99192.59;;;24.45;27.49
69187;BME280;56301;56.864;60.554;2023-04-20T06:16:33;99190.91;;;24.44;27.41
69187;BME280;56301;56.864;60.554;2023-04-20T06:18:56;99192.91;;;24.42;26.77
69187;BME280;56301;56.864;60.554;2023-04-20T06:21:18;99188.53;;;24.41;27.41
69187;BME280;56301;56.864;60.554;2023-04-20T06:23:41;99203.06;;;24.40;27.46
69187;BME280;56301;56.864;60.554;2023-04-20T06:26:03;99200.34;;;24.40;27.39
69187;BME280;56301;56.864;60.554;2023-04-20T06:28:26;99200.50;;;24.38;27.57
69187;BME280;56301;56.864;60.554;2023-04-20T06:30:48;99196.13;;;24.37;27.08
69187;BME280;56301;56.864;60.554;2023-04-20T06:33:11;99196.44;;;24.34;27.97
69187;BME280;56301;56.864;60.554;2023-04-20T06:35:33;99198.31;;;24.34;27.30
69187;BME280;56301;56.864;60.554;2023-04-20T06:37:55;99203.88;;;24.32;27.42
69187;BME280;56301;56.864;60.554;2023-04-20T06:40:18;99195.09;;;24.30;27.49
69187;BME280;56301;56.864;60.554;2023-04-20T06:42:40;99205.09;;;24.30;28.07
69187;BME280;56301;56.864;60.554;2023-04-20T06:45:04;99199.00;;;24.27;27.85
69187;BME280;56301;56.864;60.554;2023-04-20T06:47:26;99196.28;;;24.27;27.45
69187;BME280;56301;56.864;60.554;2023-04-20T06:49:49;99198.16;;;24.27;27.88
69187;BME280;56301;56.864;60.554;2023-04-20T06:52:11;99195.44;;;24.27;27.49
69187;BME280;56301;56.864;60.554;2023-04-20T06:54:34;99204.41;;;24.27;27.68
69187;BME280;56301;56.864;60.554;2023-04-20T06:56:56;99200.00;;;24.26;27.50
69187;BME280;56301;56.864;60.554;2023-04-20T06:59:18;99200.00;;;24.26;27.71
69187;BME280;56301;56.864;60.554;2023-04-20T07:01:41;99203.72;;;24.25;27.98
69187;BME280;56301;56.864;60.554;2023-04-20T07:04:03;99199.50;;;24.23;27.72
69187;BME280;56301;56.864;60.554;2023-04-20T07:06:26;99218.59;;;24.21;27.60
69187;BME280;56301;56.864;60.554;2023-04-20T07:08:48;99214.38;;;24.19;27.38
69187;BME280;56301;56.864;60.554;2023-04-20T07:11:10;99207.25;;;24.18;27.47
69187;BME280;56301;56.864;60.554;2023-04-20T07:13:33;99217.25;;;24.17;27.53
69187;BME280;56301;56.864;60.554;2023-04-20T07:15:55;99213.69;;;24.17;27.61
69187;BME280;56301;56.864;60.554;2023-04-20T07:18:18;99219.94;;;24.17;27.15
69187;BME280;56301;56.864;60.554;2023-04-20T07:20:41;99211.00;;;24.17;27.17
69187;BME280;56301;56.864;60.554;2023-04-20T07:23:03;99206.41;;;24.17;27.20
69187;BME280;56301;56.864;60.554;2023-04-20T07:25:26;99211.81;;;24.17;27.13
69187;BME280;56301;56.864;60.554;2023-04-20T07:27:48;99205.25;;;24.20;27.08
69187;BME280;56301;56.864;60.554;2023-04-20T07:30:11;99198.16;;;24.19;27.14
69187;BME280;56301;56.864;60.554;2023-04-20T07:32:33;99198.81;;;24.21;27.17
69187;BME280;56301;56.864;60.554;2023-04-20T07:34:56;99195.97;;;24.22;27.53
69187;BME280;56301;56.864;60.554;2023-04-20T07:37:19;99184.13;;;24.23;27.47
69187;BME280;56301;56.864;60.554;2023-04-20T07:39:41;99185.47;;;24.27;27.50
69187;BME280;56301;56.864;60.554;2023-04-20T07:42:03;99184.09;;;24.32;27.74
69187;BME280;56301;56.864;60.554;2023-04-20T07:44:26;99181.56;;;24.38;27.92
69187;BME280;56301;56.864;60.554;2023-04-20T07:46:48;99183.78;;;24.43;28.79
69187;BME280;56301;56.864;60.554;2023-04-20T07:49:11;99172.63;;;24.46;27.76
69187;BME280;56301;56.864;60.554;2023-04-20T07:51:33;99167.91;;;24.48;27.90
69187;BME280;56301;56.864;60.554;2023-04-20T07:53:55;99170.25;;;24.51;29.35
69187;BME280;56301;56.864;60.554;2023-04-20T07:56:18;99161.13;;;24.52;28.47
69187;BME280;56301;56.864;60.554;2023-04-20T07:58:40;99160.78;;;24.55;28.08
69187;BME280;56301;56.864;60.554;2023-04-20T08:01:03;99153.31;;;24.57;28.16
69187;BME280;56301;56.864;60.554;2023-04-20T08:03:25;99155.88;;;24.59;28.42
69187;BME280;56301;56.864;60.554;2023-04-20T08:05:48;99149.25;;;24.61;28.49
69187;BME280;56301;56.864;60.554;2023-04-20T08:08:10;99145.56;;;24.62;28.30
69187;BME280;56301;56.864;60.554;2023-04-20T08:10:33;99147.88;;;24.65;28.49
69187;BME280;56301;56.864;60.554;2023-04-20T08:12:55;99140.63;;;24.66;28.52
69187;BME280;56301;56.864;60.554;2023-04-20T08:15:18;99138.56;;;24.68;28.24
69187;BME280;56301;56.864;60.554;2023-04-20T08:17:40;99135.72;;;24.69;28.67
69187;BME280;56301;56.864;60.554;2023-04-20T08:20:03;99135.72;;;24.69;28.78
69187;BME280;56301;56.864;60.554;2023-04-20T08:22:25;99131.97;;;24.70;28.93
69187;BME280;56301;56.864;60.554;2023-04-20T08:24:48;99126.56;;;24.70;28.74
69187;BME280;56301;56.864;60.554;2023-04-20T08:27:10;99120.13;;;24.71;28.28
69187;BME280;56301;56.864;60.554;2023-04-20T08:29:33;99122.50;;;24.74;28.85
69187;BME280;56301;56.864;60.554;2023-04-20T08:31:55;99119.78;;;24.74;28.86
69187;BME280;56301;56.864;60.554;2023-04-20T08:34:18;99110.63;;;24.76;28.21
69187;BME280;56301;56.864;60.554;2023-04-20T08:36:40;99112.16;;;24.78;28.71
69187;BME280;56301;56.864;60.554;2023-04-20T08:39:06;99109.25;;;24.80;28.59
69187;BME280;56301;56.864;60.554;2023-04-20T08:41:29;99109.25;;;24.80;28.75
69187;BME280;56301;56.864;60.554;2023-04-20T08:43:51;99106.56;;;24.80;28.70
69187;BME280;56301;56.864;60.554;2023-04-20T08:46:14;99108.91;;;24.83;28.31
69187;BME280;56301;56.864;60.554;2023-04-20T08:48:37;99110.63;;;24.84;28.94
69187;BME280;56301;56.864;60.554;2023-04-20T08:51:03;99099.63;;;24.85;28.65
69187;BME280;56301;56.864;60.554;2023-04-20T08:53:25;99098.59;;;24.86;29.06
69187;BME280;56301;56.864;60.554;2023-04-20T08:55:48;99091.97;;;24.89;28.28
69187;BME280;56301;56.864;60.554;2023-04-20T08:58:11;99087.41;;;24.89;29.02
69187;BME280;56301;56.864;60.554;2023-04-20T09:00:33;99089.09;;;24.90;29.02
69187;BME280;56301;56.864;60.554;2023-04-20T09:02:56;99095.34;;;24.91;29.41
69187;BME280;56301;56.864;60.554;2023-04-20T09:05:28;99087.06;;;24.92;29.36
69187;BME280;56301;56.864;60.554;2023-04-20T09:07:51;99087.91;;;24.93;29.06
69187;BME280;56301;56.864;60.554;2023-04-20T09:10:14;99083.50;;;24.92;29.12
69187;BME280;56301;56.864;60.554;2023-04-20T09:12:41;99087.91;;;24.93;29.04
69187;BME280;56301;56.864;60.554;2023-04-20T09:15:03;99074.38;;;24.93;29.55
69187;BME280;56301;56.864;60.554;2023-04-20T09:17:33;99084.34;;;24.92;29.54
69187;BME280;56301;56.864;60.554;2023-04-20T09:19:55;99082.50;;;24.93;29.00
69187;BME280;56301;56.864;60.554;2023-04-20T09:22:28;99072.34;;;24.95;28.55
69187;BME280;56301;56.864;60.554;2023-04-20T09:24:50;99078.41;;;24.97;29.06
69187;BME280;56301;56.864;60.554;2023-04-20T09:27:13;99078.41;;;24.97;29.18
69187;BME280;56301;56.864;60.554;2023-04-20T09:29:36;99072.63;;;25.00;28.99
69187;BME280;56301;56.864;60.554;2023-04-20T09:31:59;99071.78;;;25.00;28.81
69187;BME280;56301;56.864;60.554;2023-04-20T09:34:22;99081.78;;;24.99;29.58
69187;BME280;56301;56.864;60.554;2023-04-20T09:36:46;99076.38;;;24.99;29.06
69187;BME280;56301;56.864;60.554;2023-04-20T09:39:13;99070.97;;;24.99;29.27
69187;BME280;56301;56.864;60.554;2023-04-20T09:41:36;99063.69;;;25.00;29.12
69187;BME280;56301;56.864;60.554;2023-04-20T09:43:59;99069.09;;;25.00;29.22
69187;BME280;56301;56.864;60.554;2023-04-20T09:46:21;99064.50;;;25.00;29.48
69187;BME280;56301;56.864;60.554;2023-04-20T09:48:45;99065.84;;;25.04;28.84
69187;BME280;56301;56.864;60.554;2023-04-20T09:51:08;99062.78;;;25.07;29.12
69187;BME280;56301;56.864;60.554;2023-04-20T09:53:31;99065.81;;;25.12;29.04
69187;BME280;56301;56.864;60.554;2023-04-20T09:55:55;99058.19;;;25.16;29.25
69187;BME280;56301;56.864;60.554;2023-04-20T09:58:18;99048.03;;;25.18;28.93
69187;BME280;56301;56.864;60.554;2023-04-20T10:00:41;99040.38;;;25.21;29.51
69187;BME280;56301;56.864;60.554;2023-04-20T10:03:03;99039.13;;;25.32;29.38
69187;BME280;56301;56.864;60.554;2023-04-20T10:05:32;99032.13;;;25.38;28.86
69187;BME280;56301;56.864;60.554;2023-04-20T10:07:57;99029.59;;;25.36;29.50
69187;BME280;56301;56.864;60.554;2023-04-20T10:10:20;99020.44;;;25.37;29.04
69187;BME280;56301;56.864;60.554;2023-04-20T10:12:46;99018.56;;;25.38;28.51
69187;BME280;56301;56.864;60.554;2023-04-20T10:15:09;99018.56;;;25.38;28.84
69187;BME280;56301;56.864;60.554;2023-04-20T10:17:32;99023.34;;;25.36;28.74
69187;BME280;56301;56.864;60.554;2023-04-20T10:19:54;99024.38;;;25.35;28.91
69187;BME280;56301;56.864;60.554;2023-04-20T10:22:26;99018.28;;;25.33;28.58
69187;BME280;56301;56.864;60.554;2023-04-20T10:24:49;99017.44;;;25.32;28.78
69187;BME280;56301;56.864;60.554;2023-04-20T10:27:15;99005.78;;;25.32;29.09
69187;BME280;56301;56.864;60.554;2023-04-20T10:29:38;99002.31;;;25.38;28.85
69187;BME280;56301;56.864;60.554;2023-04-20T10:32:00;99008.53;;;25.47;28.78
69187;BME280;56301;56.864;60.554;2023-04-20T10:34:32;99004.16;;;25.45;28.38
69187;BME280;56301;56.864;60.554;2023-04-20T10:37:05;99003.94;;;25.47;27.81
69187;BME280;56301;56.864;60.554;2023-04-20T10:39:27;98996.03;;;25.45;28.62
69187;BME280;56301;56.864;60.554;2023-04-20T10:41:54;99007.69;;;25.46;28.38
69187;BME280;56301;56.864;60.554;2023-04-20T10:44:16;99000.97;;;25.42;28.59
69187;BME280;56301;56.864;60.554;2023-04-20T10:46:39;98996.53;;;25.41;29.15
69187;BME280;56301;56.864;60.554;2023-04-20T10:49:01;99003.00;;;25.40;28.95
69187;BME280;56301;56.864;60.554;2023-04-20T10:51:24;98996.25;;;25.36;29.03
69187;BME280;56301;56.864;60.554;2023-04-20T10:54:07;98996.25;;;25.36;28.67
69187;BME280;56301;56.864;60.554;2023-04-20T10:56:36;98989.34;;;25.33;28.78
69187;BME280;56301;56.864;60.554;2023-04-20T10:59:04;98989.53;;;25.32;28.77
69187;BME280;56301;56.864;60.554;2023-04-20T11:01:29;98983.63;;;25.28;28.17
69187;BME280;56301;56.864;60.554;2023-04-20T11:06:35;98974.66;;;25.28;29.20
69187;BME280;56301;56.864;60.554;2023-04-20T11:08:57;98976.69;;;25.26;28.81
69187;BME280;56301;56.864;60.554;2023-04-20T11:11:23;98983.16;;;25.25;28.92
69187;BME280;56301;56.864;60.554;2023-04-20T11:13:46;98974.34;;;25.23;29.02
69187;BME280;56301;56.864;60.554;2023-04-20T11:16:10;98975.38;;;25.21;28.78
69187;BME280;56301;56.864;60.554;2023-04-20T11:18:33;98977.41;;;25.19;28.70
69187;BME280;56301;56.864;60.554;2023-04-20T11:20:55;98974.06;;;25.17;28.71
69187;BME280;56301;56.864;60.554;2023-04-20T11:23:19;98975.75;;;25.18;28.51
69187;BME280;56301;56.864;60.554;2023-04-20T11:25:55;98976.09;;;25.15;28.67
69187;BME280;56301;56.864;60.554;2023-04-20T11:28:17;98973.59;;;25.14;28.81
69187;BME280;56301;56.864;60.554;2023-04-20T11:30:40;98977.34;;;25.13;28.63
69187;BME280;56301;56.864;60.554;2023-04-20T11:33:03;98976.47;;;25.12;28.21
69187;BME280;56301;56.864;60.554;2023-04-20T11:35:25;98970.03;;;25.13;28.75
69187;BME280;56301;56.864;60.554;2023-04-20T11:37:48;98962.91;;;25.12;29.16
69187;BME280;56301;56.864;60.554;2023-04-20T11:40:11;98965.00;;;25.10;28.91
69187;BME280;56301;56.864;60.554;2023-04-20T11:42:34;98953.44;;;25.08;28.98
69187;BME280;56301;56.864;60.554;2023-04-20T11:44:57;98953.44;;;25.08;28.87
69187;BME280;56301;56.864;60.554;2023-04-20T11:47:20;98950.75;;;25.08;28.93
69187;BME280;56301;56.864;60.554;2023-04-20T11:49:42;98956.16;;;25.08;28.61
69187;BME280;56301;56.864;60.554;2023-04-20T11:52:05;98950.75;;;25.08;29.21
69187;BME280;56301;56.864;60.554;2023-04-20T11:54:27;98953.66;;;25.07;28.84
69187;BME280;56301;56.864;60.554;2023-04-20T11:56:50;98955.50;;;25.06;28.68
69187;BME280;56301;56.864;60.554;2023-04-20T11:59:12;98942.97;;;25.05;29.27
69187;BME280;56301;56.864;60.554;2023-04-20T12:01:35;98949.44;;;25.04;28.80
69187;BME280;56301;56.864;60.554;2023-04-20T12:03:58;98950.47;;;25.03;28.82
69187;BME280;56301;56.864;60.554;2023-04-20T12:06:20;98947.75;;;25.03;29.14
69187;BME280;56301;56.864;60.554;2023-04-20T12:08:43;98946.06;;;25.02;28.73
69187;BME280;56301;56.864;60.554;2023-04-20T12:11:05;98943.53;;;25.01;29.10
69187;BME280;56301;56.864;60.554;2023-04-20T12:13:27;98942.03;;;24.98;28.89
69187;BME280;56301;56.864;60.554;2023-04-20T12:15:50;98939.31;;;24.98;28.74
69187;BME280;56301;56.864;60.554;2023-04-20T12:18:12;98938.84;;;24.94;28.76
69187;BME280;56301;56.864;60.554;2023-04-20T12:20:35;98934.28;;;24.95;28.95
69187;BME280;56301;56.864;60.554;2023-04-20T12:22:57;98927.16;;;24.94;28.86
69187;BME280;56301;56.864;60.554;2023-04-20T12:25:20;98923.81;;;24.92;28.98
69187;BME280;56301;56.864;60.554;2023-04-20T12:27:42;98924.81;;;24.91;29.30
69187;BME280;56301;56.864;60.554;2023-04-20T12:30:05;98927.53;;;24.91;28.92
69187;BME280;56301;56.864;60.554;2023-04-20T12:32:27;98917.72;;;24.90;29.36